sensor_id;sensor_type;location;lat;lon;timestamp;temperature;humidity
59855;DHT22;45732;52.850;6.896;2023-04-24T00:00:06;10.80;99.90
59855;DHT22;45732;52.850;6.896;2023-04-24T00:02:32;10.70;99.90
59855;DHT22;45732;52.850;6.896;2023-04-24T00:04:59;10.80;99.90
59855;DHT22;45732;52.850;6.896;2023-04-24T00:07:27;10.70;99.90
59855;DHT22;45732;52.850;6.896;2023-04-24T00:09:53;10.70;99.90
59855;DHT22;45732;52.850;6.896;2023-04-24T00:12:18;10.70;99.90
59855;DHT22;45732;52.850;6.896;2023-04-24T00:14:44;10.60;99.90
59855;DHT22;45732;52.850;6.896;2023-04-24T00:17:10;10.70;99.90
59855;DHT22;45732;52.850;6.896;2023-04-24T00:19:36;10.60;99.90
59855;DHT22;45732;52.850;6.896;2023-04-24T00:22:02;10.60;99.90
59855;DHT22;45732;52.850;6.896;2023-04-24T00:24:28;10.50;99.90
59855;DHT22;45732;52.850;6.896;2023-04-24T00:26:53;10.40;99.90
59855;DHT22;45732;52.850;6.896;2023-04-24T00:29:19;10.40;99.90
59855;DHT22;45732;52.850;6.896;2023-04-24T00:31:45;10.40;99.90
59855;DHT22;45732;52.850;6.896;2023-04-24T00:34:11;10.40;99.90
59855;DHT22;45732;52.850;6.896;2023-04-24T00:36:37;10.40;99.90
59855;DHT22;45732;52.850;6.896;2023-04-24T00:39:03;10.40;99.90
59855;DHT22;45732;52.850;6.896;2023-04-24T00:41:29;10.40;99.90
59855;DHT22;45732;52.850;6.896;2023-04-24T00:43:55;10.40;99.90
59855;DHT22;45732;52.850;6.896;2023-04-24T00:46:21;10.40;99.90
59855;DHT22;45732;52.850;6.896;2023-04-24T00:48:47;10.40;99.90
59855;DHT22;45732;52.850;6.896;2023-04-24T00:51:12;10.40;99.90
59855;DHT22;45732;52.850;6.896;2023-04-24T00:53:38;10.40;99.90
59855;DHT22;45732;52.850;6.896;2023-04-24T00:56:04;10.40;99.90
59855;DHT22;45732;52.850;6.896;2023-04-24T00:58:31;10.40;99.90
59855;DHT22;45732;52.850;6.896;2023-04-24T01:00:57;10.40;99.90
59855;DHT22;45732;52.850;6.896;2023-04-24T01:03:28;10.30;99.90
59855;DHT22;45732;52.850;6.896;2023-04-24T01:05:54;10.30;99.90
59855;DHT22;45732;52.850;6.896;2023-04-24T01:08:22;10.30;99.90
59855;DHT22;45732;52.850;6.896;2023-04-24T01:10:52;10.20;99.90
59855;DHT22;45732;52.850;6.896;2023-04-24T01:13:21;10.10;99.90
59855;DHT22;45732;52.850;6.896;2023-04-24T01:15:47;10.10;99.90
59855;DHT22;45732;52.850;6.896;2023-04-24T01:18:13;10.10;99.90
59855;DHT22;45732;52.850;6.896;2023-04-24T01:20:40;10.10;99.90
59855;DHT22;45732;52.850;6.896;2023-04-24T01:23:07;10.10;99.90
59855;DHT22;45732;52.850;6.896;2023-04-24T01:25:34;10.10;99.90
59855;DHT22;45732;52.850;6.896;2023-04-24T01:28:00;10.10;99.90
59855;DHT22;45732;52.850;6.896;2023-04-24T01:30:26;10.10;99.90
59855;DHT22;45732;52.850;6.896;2023-04-24T01:32:53;10.10;99.90
59855;DHT22;45732;52.850;6.896;2023-04-24T01:35:19;10.10;99.90
59855;DHT22;45732;52.850;6.896;2023-04-24T01:37:45;10.00;99.90
59855;DHT22;45732;52.850;6.896;2023-04-24T01:40:11;9.90;99.90
59855;DHT22;45732;52.850;6.896;2023-04-24T01:42:37;10.00;99.90
59855;DHT22;45732;52.850;6.896;2023-04-24T01:45:04;10.00;99.90
59855;DHT22;45732;52.850;6.896;2023-04-24T01:47:31;10.00;99.90
59855;DHT22;45732;52.850;6.896;2023-04-24T01:49:57;10.00;99.90
59855;DHT22;45732;52.850;6.896;2023-04-24T01:52:23;9.90;99.90
59855;DHT22;45732;52.850;6.896;2023-04-24T01:54:49;9.90;99.90
59855;DHT22;45732;52.850;6.896;2023-04-24T01:57:16;10.00;99.90
59855;DHT22;45732;52.850;6.896;2023-04-24T01:59:42;9.90;99.90
59855;DHT22;45732;52.850;6.896;2023-04-24T02:02:08;10.00;99.90
59855;DHT22;45732;52.850;6.896;2023-04-24T02:04:34;9.90;99.90
59855;DHT22;45732;52.850;6.896;2023-04-24T02:06:59;9.90;99.90
59855;DHT22;45732;52.850;6.896;2023-04-24T02:09:25;9.90;99.90
59855;DHT22;45732;52.850;6.896;2023-04-24T02:11:51;9.90;99.90
59855;DHT22;45732;52.850;6.896;2023-04-24T02:14:16;9.90;99.90
59855;DHT22;45732;52.850;6.896;2023-04-24T02:16:42;9.90;99.90
59855;DHT22;45732;52.850;6.896;2023-04-24T02:19:09;9.90;99.90
59855;DHT22;45732;52.850;6.896;2023-04-24T02:21:35;9.90;99.90
59855;DHT22;45732;52.850;6.896;2023-04-24T02:24:01;9.80;99.90
59855;DHT22;45732;52.850;6.896;2023-04-24T02:26:27;9.80;99.90
59855;DHT22;45732;52.850;6.896;2023-04-24T02:28:53;9.90;99.90
59855;DHT22;45732;52.850;6.896;2023-04-24T02:31:19;9.80;99.90
59855;DHT22;45732;52.850;6.896;2023-04-24T02:33:44;9.80;99.90
59855;DHT22;45732;52.850;6.896;2023-04-24T02:36:10;9.80;99.90
59855;DHT22;45732;52.850;6.896;2023-04-24T02:38:36;9.80;99.90
59855;DHT22;45732;52.850;6.896;2023-04-24T02:41:01;9.90;99.90
59855;DHT22;45732;52.850;6.896;2023-04-24T02:43:32;9.80;99.90
59855;DHT22;45732;52.850;6.896;2023-04-24T02:45:58;9.80;99.90
59855;DHT22;45732;52.850;6.896;2023-04-24T02:48:23;9.90;99.90
59855;DHT22;45732;52.850;6.896;2023-04-24T02:50:49;9.80;99.90
59855;DHT22;45732;52.850;6.896;2023-04-24T02:53:16;9.80;99.90
59855;DHT22;45732;52.850;6.896;2023-04-24T02:55:41;9.80;99.90
59855;DHT22;45732;52.850;6.896;2023-04-24T02:58:07;9.80;99.90
59855;DHT22;45732;52.850;6.896;2023-04-24T03:00:33;9.80;99.90
59855;DHT22;45732;52.850;6.896;2023-04-24T03:02:59;9.90;99.90
59855;DHT22;45732;52.850;6.896;2023-04-24T03:05:25;9.80;99.90
59855;DHT22;45732;52.850;6.896;2023-04-24T03:07:50;9.80;99.90
59855;DHT22;45732;52.850;6.896;2023-04-24T03:10:18;9.70;99.90
59855;DHT22;45732;52.850;6.896;2023-04-24T03:12:44;9.80;99.90
59855;DHT22;45732;52.850;6.896;2023-04-24T03:15:10;9.70;99.90
59855;DHT22;45732;52.850;6.896;2023-04-24T03:17:35;9.70;99.90
59855;DHT22;45732;52.850;6.896;2023-04-24T03:20:03;9.70;99.90
59855;DHT22;45732;52.850;6.896;2023-04-24T03:22:30;9.70;99.90
59855;DHT22;45732;52.850;6.896;2023-04-24T03:24:58;9.70;99.90
59855;DHT22;45732;52.850;6.896;2023-04-24T03:27:23;9.70;99.90
59855;DHT22;45732;52.850;6.896;2023-04-24T03:29:49;9.70;99.90
59855;DHT22;45732;52.850;6.896;2023-04-24T03:32:19;9.70;99.90
59855;DHT22;45732;52.850;6.896;2023-04-24T03:34:45;9.70;99.90
59855;DHT22;45732;52.850;6.896;2023-04-24T03:37:10;9.70;99.90
59855;DHT22;45732;52.850;6.896;2023-04-24T03:39:36;9.70;99.90
59855;DHT22;45732;52.850;6.896;2023-04-24T03:42:02;9.70;99.90
59855;DHT22;45732;52.850;6.896;2023-04-24T03:44:27;9.60;99.90
59855;DHT22;45732;52.850;6.896;2023-04-24T03:46:53;9.60;99.90
59855;DHT22;45732;52.850;6.896;2023-04-24T03:49:19;9.70;99.90
59855;DHT22;45732;52.850;6.896;2023-04-24T03:51:45;9.60;99.90
59855;DHT22;45732;52.850;6.896;2023-04-24T03:54:11;9.70;99.90
59855;DHT22;45732;52.850;6.896;2023-04-24T03:56:37;9.70;99.90
59855;DHT22;45732;52.850;6.896;2023-04-24T03:59:03;9.70;99.90
59855;DHT22;45732;52.850;6.896;2023-04-24T04:01:28;9.70;99.90
59855;DHT22;45732;52.850;6.896;2023-04-24T04:03:54;9.70;99.90
59855;DHT22;45732;52.850;6.896;2023-04-24T04:06:20;9.60;99.90
59855;DHT22;45732;52.850;6.896;2023-04-24T04:08:47;9.70;99.90
59855;DHT22;45732;52.850;6.896;2023-04-24T04:11:12;9.70;99.90
59855;DHT22;45732;52.850;6.896;2023-04-24T04:13:38;9.60;99.90
59855;DHT22;45732;52.850;6.896;2023-04-24T04:16:04;9.60;99.90
59855;DHT22;45732;52.850;6.896;2023-04-24T04:18:30;9.60;99.90
59855;DHT22;45732;52.850;6.896;2023-04-24T04:20:56;9.60;99.90
59855;DHT22;45732;52.850;6.896;2023-04-24T04:23:22;9.70;99.90
59855;DHT22;45732;52.850;6.896;2023-04-24T04:25:48;9.70;99.90
59855;DHT22;45732;52.850;6.896;2023-04-24T04:28:15;9.70;99.90
59855;DHT22;45732;52.850;6.896;2023-04-24T04:30:41;9.70;99.90
59855;DHT22;45732;52.850;6.896;2023-04-24T04:33:07;9.70;99.90
59855;DHT22;45732;52.850;6.896;2023-04-24T04:35:33;9.60;99.90
59855;DHT22;45732;52.850;6.896;2023-04-24T04:37:59;9.70;99.90
59855;DHT22;45732;52.850;6.896;2023-04-24T04:40:26;9.70;99.90
59855;DHT22;45732;52.850;6.896;2023-04-24T04:42:53;9.60;99.90
59855;DHT22;45732;52.850;6.896;2023-04-24T04:45:19;9.60;99.90
59855;DHT22;45732;52.850;6.896;2023-04-24T04:47:46;9.60;99.90
59855;DHT22;45732;52.850;6.896;2023-04-24T04:50:12;9.50;99.90
59855;DHT22;45732;52.850;6.896;2023-04-24T04:52:38;9.50;99.90
59855;DHT22;45732;52.850;6.896;2023-04-24T04:55:04;9.50;99.90
59855;DHT22;45732;52.850;6.896;2023-04-24T04:57:30;9.50;99.90
59855;DHT22;45732;52.850;6.896;2023-04-24T04:59:56;9.50;99.90
59855;DHT22;45732;52.850;6.896;2023-04-24T05:02:22;9.50;99.90
59855;DHT22;45732;52.850;6.896;2023-04-24T05:04:47;9.50;99.90
59855;DHT22;45732;52.850;6.896;2023-04-24T05:07:13;9.50;99.90
59855;DHT22;45732;52.850;6.896;2023-04-24T05:09:39;9.50;99.90
59855;DHT22;45732;52.850;6.896;2023-04-24T05:12:05;9.50;99.90
59855;DHT22;45732;52.850;6.896;2023-04-24T05:14:30;9.50;99.90
59855;DHT22;45732;52.850;6.896;2023-04-24T05:16:56;9.50;99.90
59855;DHT22;45732;52.850;6.896;2023-04-24T05:19:22;9.50;99.90
59855;DHT22;45732;52.850;6.896;2023-04-24T05:21:48;9.50;99.90
59855;DHT22;45732;52.850;6.896;2023-04-24T05:24:13;9.40;99.90
59855;DHT22;45732;52.850;6.896;2023-04-24T05:26:39;9.50;99.90
59855;DHT22;45732;52.850;6.896;2023-04-24T05:29:05;9.50;99.90
59855;DHT22;45732;52.850;6.896;2023-04-24T05:31:31;9.50;99.90
59855;DHT22;45732;52.850;6.896;2023-04-24T05:33:56;9.50;99.90
59855;DHT22;45732;52.850;6.896;2023-04-24T05:36:22;9.60;99.90
59855;DHT22;45732;52.850;6.896;2023-04-24T05:38:48;9.60;99.90
59855;DHT22;45732;52.850;6.896;2023-04-24T05:41:14;9.50;99.90
59855;DHT22;45732;52.850;6.896;2023-04-24T05:43:40;9.60;99.90
59855;DHT22;45732;52.850;6.896;2023-04-24T05:46:06;9.60;99.90
59855;DHT22;45732;52.850;6.896;2023-04-24T05:48:31;9.60;99.90
59855;DHT22;45732;52.850;6.896;2023-04-24T05:50:57;9.60;99.90
59855;DHT22;45732;52.850;6.896;2023-04-24T05:53:23;9.70;99.90
59855;DHT22;45732;52.850;6.896;2023-04-24T05:55:48;9.70;99.90
59855;DHT22;45732;52.850;6.896;2023-04-24T05:58:15;9.70;99.90
59855;DHT22;45732;52.850;6.896;2023-04-24T06:00:40;9.70;99.90
59855;DHT22;45732;52.850;6.896;2023-04-24T06:03:08;9.70;99.90
59855;DHT22;45732;52.850;6.896;2023-04-24T06:05:34;9.70;99.90
59855;DHT22;45732;52.850;6.896;2023-04-24T06:08:00;9.70;99.90
59855;DHT22;45732;52.850;6.896;2023-04-24T06:10:26;9.60;99.90
59855;DHT22;45732;52.850;6.896;2023-04-24T06:12:52;9.60;99.90
59855;DHT22;45732;52.850;6.896;2023-04-24T06:15:21;9.70;99.90
59855;DHT22;45732;52.850;6.896;2023-04-24T06:17:47;9.70;99.90
59855;DHT22;45732;52.850;6.896;2023-04-24T06:20:13;9.60;99.90
59855;DHT22;45732;52.850;6.896;2023-04-24T06:22:39;9.70;99.90
59855;DHT22;45732;52.850;6.896;2023-04-24T06:25:06;9.60;99.90
59855;DHT22;45732;52.850;6.896;2023-04-24T06:27:32;9.70;99.90
59855;DHT22;45732;52.850;6.896;2023-04-24T06:29:58;9.70;99.90
59855;DHT22;45732;52.850;6.896;2023-04-24T06:32:24;9.60;99.90
59855;DHT22;45732;52.850;6.896;2023-04-24T06:34:53;9.60;99.90
59855;DHT22;45732;52.850;6.896;2023-04-24T06:37:22;9.70;99.90
59855;DHT22;45732;52.850;6.896;2023-04-24T06:39:48;9.70;99.90
59855;DHT22;45732;52.850;6.896;2023-04-24T06:42:13;9.70;99.90
59855;DHT22;45732;52.850;6.896;2023-04-24T06:44:39;9.70;99.90
59855;DHT22;45732;52.850;6.896;2023-04-24T06:47:09;9.70;99.90
59855;DHT22;45732;52.850;6.896;2023-04-24T06:49:38;9.70;99.90
59855;DHT22;45732;52.850;6.896;2023-04-24T06:52:04;9.70;99.90
59855;DHT22;45732;52.850;6.896;2023-04-24T06:54:30;9.80;99.90
59855;DHT22;45732;52.850;6.896;2023-04-24T06:56:56;9.80;99.90
59855;DHT22;45732;52.850;6.896;2023-04-24T06:59:23;9.80;99.90
59855;DHT22;45732;52.850;6.896;2023-04-24T07:01:49;9.80;99.90
59855;DHT22;45732;52.850;6.896;2023-04-24T07:04:17;9.80;99.90
59855;DHT22;45732;52.850;6.896;2023-04-24T07:06:43;9.80;99.90
59855;DHT22;45732;52.850;6.896;2023-04-24T07:09:10;9.80;99.90
59855;DHT22;45732;52.850;6.896;2023-04-24T07:11:36;9.80;99.90
59855;DHT22;45732;52.850;6.896;2023-04-24T07:14:03;9.80;99.90
59855;DHT22;45732;52.850;6.896;2023-04-24T07:16:29;9.90;99.90
59855;DHT22;45732;52.850;6.896;2023-04-24T07:18:55;9.90;99.90
59855;DHT22;45732;52.850;6.896;2023-04-24T07:21:21;10.00;99.90
59855;DHT22;45732;52.850;6.896;2023-04-24T07:23:46;10.00;99.90
59855;DHT22;45732;52.850;6.896;2023-04-24T07:26:12;10.10;99.90
59855;DHT22;45732;52.850;6.896;2023-04-24T07:28:40;10.10;99.90
59855;DHT22;45732;52.850;6.896;2023-04-24T07:31:06;10.20;99.90
59855;DHT22;45732;52.850;6.896;2023-04-24T07:33:32;10.20;99.90
59855;DHT22;45732;52.850;6.896;2023-04-24T07:35:58;10.20;99.90
59855;DHT22;45732;52.850;6.896;2023-04-24T07:38:24;10.30;99.90
59855;DHT22;45732;52.850;6.896;2023-04-24T07:40:51;10.30;99.90
59855;DHT22;45732;52.850;6.896;2023-04-24T07:43:17;10.20;99.90
59855;DHT22;45732;52.850;6.896;2023-04-24T07:45:43;10.30;99.90
59855;DHT22;45732;52.850;6.896;2023-04-24T07:48:09;10.30;99.90
59855;DHT22;45732;52.850;6.896;2023-04-24T07:50:36;10.30;99.90
59855;DHT22;45732;52.850;6.896;2023-04-24T07:53:02;10.30;99.90
59855;DHT22;45732;52.850;6.896;2023-04-24T07:55:28;10.30;99.90
59855;DHT22;45732;52.850;6.896;2023-04-24T07:57:54;10.30;99.90
59855;DHT22;45732;52.850;6.896;2023-04-24T08:00:20;10.40;99.90
59855;DHT22;45732;52.850;6.896;2023-04-24T08:02:46;10.40;99.90
59855;DHT22;45732;52.850;6.896;2023-04-24T08:05:11;10.40;99.90
59855;DHT22;45732;52.850;6.896;2023-04-24T08:07:38;10.30;99.90
59855;DHT22;45732;52.850;6.896;2023-04-24T08:10:04;10.30;99.90
59855;DHT22;45732;52.850;6.896;2023-04-24T08:12:30;10.30;99.90
59855;DHT22;45732;52.850;6.896;2023-04-24T08:14:56;10.20;99.90
59855;DHT22;45732;52.850;6.896;2023-04-24T08:17:22;10.20;99.90
59855;DHT22;45732;52.850;6.896;2023-04-24T08:19:47;10.20;99.90
59855;DHT22;45732;52.850;6.896;2023-04-24T08:22:17;10.20;99.90
59855;DHT22;45732;52.850;6.896;2023-04-24T08:24:43;10.30;99.90
59855;DHT22;45732;52.850;6.896;2023-04-24T08:27:09;10.20;99.90
59855;DHT22;45732;52.850;6.896;2023-04-24T08:29:36;10.30;99.90
59855;DHT22;45732;52.850;6.896;2023-04-24T08:32:02;10.20;99.90
59855;DHT22;45732;52.850;6.896;2023-04-24T08:34:27;10.30;99.90
59855;DHT22;45732;52.850;6.896;2023-04-24T08:36:53;10.30;99.90
59855;DHT22;45732;52.850;6.896;2023-04-24T08:39:19;10.40;99.90
59855;DHT22;45732;52.850;6.896;2023-04-24T08:41:48;10.30;99.90
59855;DHT22;45732;52.850;6.896;2023-04-24T08:44:14;10.30;99.90
59855;DHT22;45732;52.850;6.896;2023-04-24T08:46:43;10.20;99.90
59855;DHT22;45732;52.850;6.896;2023-04-24T08:49:12;10.20;99.90
59855;DHT22;45732;52.850;6.896;2023-04-24T08:51:39;10.10;99.90
59855;DHT22;45732;52.850;6.896;2023-04-24T08:54:05;10.10;99.90
59855;DHT22;45732;52.850;6.896;2023-04-24T08:56:33;10.10;99.90
59855;DHT22;45732;52.850;6.896;2023-04-24T08:58:59;10.10;99.90
59855;DHT22;45732;52.850;6.896;2023-04-24T09:01:25;10.00;99.90
59855;DHT22;45732;52.850;6.896;2023-04-24T09:03:53;10.00;99.90
59855;DHT22;45732;52.850;6.896;2023-04-24T09:06:21;9.90;99.90
59855;DHT22;45732;52.850;6.896;2023-04-24T09:08:49;10.00;99.90
59855;DHT22;45732;52.850;6.896;2023-04-24T09:11:16;9.90;99.90
59855;DHT22;45732;52.850;6.896;2023-04-24T09:13:43;9.90;99.90
59855;DHT22;45732;52.850;6.896;2023-04-24T09:16:09;9.90;99.90
59855;DHT22;45732;52.850;6.896;2023-04-24T09:18:34;9.90;99.90
59855;DHT22;45732;52.850;6.896;2023-04-24T09:21:07;9.90;99.90
59855;DHT22;45732;52.850;6.896;2023-04-24T09:23:33;9.80;99.90
59855;DHT22;45732;52.850;6.896;2023-04-24T09:26:00;9.80;99.90
59855;DHT22;45732;52.850;6.896;2023-04-24T09:28:36;9.70;99.90
59855;DHT22;45732;52.850;6.896;2023-04-24T09:31:11;9.70;99.90
59855;DHT22;45732;52.850;6.896;2023-04-24T09:33:38;9.70;99.90
59855;DHT22;45732;52.850;6.896;2023-04-24T09:36:04;9.80;99.90
59855;DHT22;45732;52.850;6.896;2023-04-24T09:38:36;9.80;99.90
59855;DHT22;45732;52.850;6.896;2023-04-24T09:41:06;9.70;99.90
59855;DHT22;45732;52.850;6.896;2023-04-24T09:43:32;9.60;99.90
59855;DHT22;45732;52.850;6.896;2023-04-24T09:46:00;9.60;99.90
59855;DHT22;45732;52.850;6.896;2023-04-24T09:48:34;9.50;99.90
59855;DHT22;45732;52.850;6.896;2023-04-24T09:51:02;9.50;99.90
59855;DHT22;45732;52.850;6.896;2023-04-24T09:53:29;9.40;99.90
59855;DHT22;45732;52.850;6.896;2023-04-24T09:55:56;9.40;99.90
59855;DHT22;45732;52.850;6.896;2023-04-24T09:58:25;9.40;99.90
59855;DHT22;45732;52.850;6.896;2023-04-24T10:00:55;9.40;99.90
59855;DHT22;45732;52.850;6.896;2023-04-24T10:03:24;9.40;99.90
59855;DHT22;45732;52.850;6.896;2023-04-24T10:05:53;9.40;99.90
59855;DHT22;45732;52.850;6.896;2023-04-24T10:08:20;9.40;99.90
59855;DHT22;45732;52.850;6.896;2023-04-24T10:10:46;9.40;99.90
59855;DHT22;45732;52.850;6.896;2023-04-24T10:13:14;9.40;99.90
59855;DHT22;45732;52.850;6.896;2023-04-24T10:15:41;9.40;99.90
59855;DHT22;45732;52.850;6.896;2023-04-24T10:18:08;9.40;99.90
59855;DHT22;45732;52.850;6.896;2023-04-24T10:20:36;9.40;99.90
59855;DHT22;45732;52.850;6.896;2023-04-24T10:23:03;9.40;99.90
59855;DHT22;45732;52.850;6.896;2023-04-24T10:25:31;9.30;99.90
59855;DHT22;45732;52.850;6.896;2023-04-24T10:27:58;9.30;99.90
59855;DHT22;45732;52.850;6.896;2023-04-24T10:30:34;9.30;99.90
59855;DHT22;45732;52.850;6.896;2023-04-24T10:33:07;9.30;99.90
59855;DHT22;45732;52.850;6.896;2023-04-24T10:35:40;9.30;99.90
59855;DHT22;45732;52.850;6.896;2023-04-24T10:38:11;9.30;99.90
59855;DHT22;45732;52.850;6.896;2023-04-24T10:40:37;9.30;99.90
59855;DHT22;45732;52.850;6.896;2023-04-24T10:43:04;9.30;99.90
59855;DHT22;45732;52.850;6.896;2023-04-24T10:45:35;9.40;99.90
59855;DHT22;45732;52.850;6.896;2023-04-24T10:48:09;9.40;99.90
59855;DHT22;45732;52.850;6.896;2023-04-24T10:50:45;9.50;99.90
59855;DHT22;45732;52.850;6.896;2023-04-24T10:53:19;9.50;99.90
59855;DHT22;45732;52.850;6.896;2023-04-24T10:55:47;9.50;99.90
59855;DHT22;45732;52.850;6.896;2023-04-24T10:58:14;9.60;99.90
59855;DHT22;45732;52.850;6.896;2023-04-24T11:00:42;9.60;99.90
59855;DHT22;45732;52.850;6.896;2023-04-24T11:03:27;9.60;99.90
59855;DHT22;45732;52.850;6.896;2023-04-24T11:08:43;9.50;99.90
59855;DHT22;45732;52.850;6.896;2023-04-24T11:11:14;9.50;99.90
59855;DHT22;45732;52.850;6.896;2023-04-24T11:26:58;9.40;99.90
59855;DHT22;45732;52.850;6.896;2023-04-24T11:34:49;9.50;99.90
59855;DHT22;45732;52.850;6.896;2023-04-24T11:37:16;9.60;99.90
59855;DHT22;45732;52.850;6.896;2023-04-24T11:39:42;9.70;99.90
59855;DHT22;45732;52.850;6.896;2023-04-24T11:42:09;9.70;99.90
59855;DHT22;45732;52.850;6.896;2023-04-24T11:44:35;9.70;99.90
59855;DHT22;45732;52.850;6.896;2023-04-24T11:47:05;9.80;99.90
59855;DHT22;45732;52.850;6.896;2023-04-24T11:49:32;9.70;99.90
59855;DHT22;45732;52.850;6.896;2023-04-24T11:52:00;9.70;99.90
59855;DHT22;45732;52.850;6.896;2023-04-24T11:54:26;9.60;99.90
59855;DHT22;45732;52.850;6.896;2023-04-24T11:56:52;9.60;99.90
59855;DHT22;45732;52.850;6.896;2023-04-24T11:59:18;9.60;99.90
59855;DHT22;45732;52.850;6.896;2023-04-24T12:01:47;9.60;99.90
59855;DHT22;45732;52.850;6.896;2023-04-24T12:04:15;9.60;99.90
59855;DHT22;45732;52.850;6.896;2023-04-24T12:07:03;9.60;99.90
59855;DHT22;45732;52.850;6.896;2023-04-24T12:09:29;9.70;99.90
59855;DHT22;45732;52.850;6.896;2023-04-24T12:12:06;9.70;99.90
59855;DHT22;45732;52.850;6.896;2023-04-24T12:14:32;9.70;99.90
59855;DHT22;45732;52.850;6.896;2023-04-24T12:16:57;9.80;99.90
59855;DHT22;45732;52.850;6.896;2023-04-24T12:19:23;9.80;99.90
59855;DHT22;45732;52.850;6.896;2023-04-24T12:22:03;9.80;99.90
59855;DHT22;45732;52.850;6.896;2023-04-24T12:24:29;9.80;99.90
59855;DHT22;45732;52.850;6.896;2023-04-24T12:26:56;9.80;99.90
59855;DHT22;45732;52.850;6.896;2023-04-24T12:29:24;9.70;99.90
59855;DHT22;45732;52.850;6.896;2023-04-24T12:31:54;9.70;99.90
59855;DHT22;45732;52.850;6.896;2023-04-24T12:34:21;9.70;99.90
59855;DHT22;45732;52.850;6.896;2023-04-24T12:36:47;9.60;99.90
59855;DHT22;45732;52.850;6.896;2023-04-24T12:39:17;9.60;99.90
59855;DHT22;45732;52.850;6.896;2023-04-24T12:41:56;9.60;99.90
59855;DHT22;45732;52.850;6.896;2023-04-24T12:44:33;9.60;99.90
59855;DHT22;45732;52.850;6.896;2023-04-24T12:47:01;9.60;99.90
59855;DHT22;45732;52.850;6.896;2023-04-24T12:49:30;9.70;99.90
59855;DHT22;45732;52.850;6.896;2023-04-24T12:51:56;9.70;99.90
59855;DHT22;45732;52.850;6.896;2023-04-24T12:54:22;9.70;99.90
59855;DHT22;45732;52.850;6.896;2023-04-24T12:56:48;9.80;99.90
59855;DHT22;45732;52.850;6.896;2023-04-24T12:59:14;9.80;99.90
59855;DHT22;45732;52.850;6.896;2023-04-24T13:01:40;9.90;99.90
59855;DHT22;45732;52.850;6.896;2023-04-24T13:04:06;10.00;99.90
59855;DHT22;45732;52.850;6.896;2023-04-24T13:06:32;10.00;99.90
59855;DHT22;45732;52.850;6.896;2023-04-24T13:08:58;10.00;99.90
59855;DHT22;45732;52.850;6.896;2023-04-24T13:11:24;10.10;99.90
59855;DHT22;45732;52.850;6.896;2023-04-24T13:13:50;10.10;99.90
59855;DHT22;45732;52.850;6.896;2023-04-24T13:16:17;10.20;99.90
59855;DHT22;45732;52.850;6.896;2023-04-24T13:18:42;10.20;99.90
59855;DHT22;45732;52.850;6.896;2023-04-24T13:21:08;10.20;99.90
59855;DHT22;45732;52.850;6.896;2023-04-24T13:23:34;10.20;99.90
59855;DHT22;45732;52.850;6.896;2023-04-24T13:26:00;10.20;99.90
59855;DHT22;45732;52.850;6.896;2023-04-24T13:28:26;10.10;99.90
59855;DHT22;45732;52.850;6.896;2023-04-24T13:30:53;10.10;99.90
59855;DHT22;45732;52.850;6.896;2023-04-24T13:33:18;10.00;99.90
59855;DHT22;45732;52.850;6.896;2023-04-24T13:35:44;9.90;99.90
59855;DHT22;45732;52.850;6.896;2023-04-24T13:38:10;9.90;99.90
59855;DHT22;45732;52.850;6.896;2023-04-24T13:40:36;9.80;99.90
59855;DHT22;45732;52.850;6.896;2023-04-24T13:43:02;9.70;99.90
59855;DHT22;45732;52.850;6.896;2023-04-24T13:45:28;9.70;99.90
59855;DHT22;45732;52.850;6.896;2023-04-24T13:47:53;9.70;99.90
59855;DHT22;45732;52.850;6.896;2023-04-24T13:50:20;9.70;99.90
59855;DHT22;45732;52.850;6.896;2023-04-24T13:52:46;9.80;99.90
59855;DHT22;45732;52.850;6.896;2023-04-24T13:55:11;9.80;99.90
59855;DHT22;45732;52.850;6.896;2023-04-24T13:57:37;9.90;99.90
59855;DHT22;45732;52.850;6.896;2023-04-24T14:00:03;9.80;99.90
59855;DHT22;45732;52.850;6.896;2023-04-24T14:02:29;9.80;99.90
59855;DHT22;45732;52.850;6.896;2023-04-24T14:04:55;9.80;99.90
59855;DHT22;45732;52.850;6.896;2023-04-24T14:07:21;9.70;99.90
59855;DHT22;45732;52.850;6.896;2023-04-24T14:09:47;9.70;99.90
59855;DHT22;45732;52.850;6.896;2023-04-24T14:12:13;9.70;99.90
59855;DHT22;45732;52.850;6.896;2023-04-24T14:14:39;9.70;99.90
59855;DHT22;45732;52.850;6.896;2023-04-24T14:17:05;9.60;99.90
59855;DHT22;45732;52.850;6.896;2023-04-24T14:19:31;9.50;99.90
59855;DHT22;45732;52.850;6.896;2023-04-24T14:21:56;9.50;99.90
59855;DHT22;45732;52.850;6.896;2023-04-24T14:24:24;9.40;99.90
59855;DHT22;45732;52.850;6.896;2023-04-24T14:26:49;9.40;99.90
59855;DHT22;45732;52.850;6.896;2023-04-24T14:29:15;9.40;99.90
59855;DHT22;45732;52.850;6.896;2023-04-24T14:31:42;9.40;99.90
59855;DHT22;45732;52.850;6.896;2023-04-24T14:34:08;9.40;99.90
59855;DHT22;45732;52.850;6.896;2023-04-24T14:36:34;9.40;99.90
59855;DHT22;45732;52.850;6.896;2023-04-24T14:39:01;9.40;99.90
59855;DHT22;45732;52.850;6.896;2023-04-24T14:41:31;9.50;99.90
59855;DHT22;45732;52.850;6.896;2023-04-24T14:43:57;9.50;99.90
59855;DHT22;45732;52.850;6.896;2023-04-24T14:46:22;9.50;99.90
59855;DHT22;45732;52.850;6.896;2023-04-24T14:48:48;9.60;99.90
59855;DHT22;45732;52.850;6.896;2023-04-24T14:51:14;9.50;99.90
59855;DHT22;45732;52.850;6.896;2023-04-24T14:53:39;9.50;99.90
59855;DHT22;45732;52.850;6.896;2023-04-24T14:56:06;9.50;99.90
59855;DHT22;45732;52.850;6.896;2023-04-24T14:58:31;9.50;99.90
59855;DHT22;45732;52.850;6.896;2023-04-24T15:00:57;9.50;99.90
59855;DHT22;45732;52.850;6.896;2023-04-24T15:03:23;9.50;99.90
59855;DHT22;45732;52.850;6.896;2023-04-24T15:05:49;9.50;99.90
59855;DHT22;45732;52.850;6.896;2023-04-24T15:08:16;9.40;99.90
59855;DHT22;45732;52.850;6.896;2023-04-24T15:10:42;9.50;99.90
59855;DHT22;45732;52.850;6.896;2023-04-24T15:13:07;9.40;99.90
59855;DHT22;45732;52.850;6.896;2023-04-24T15:15:33;9.40;99.90
59855;DHT22;45732;52.850;6.896;2023-04-24T15:17:59;9.50;99.90
59855;DHT22;45732;52.850;6.896;2023-04-24T15:20:24;9.50;99.90
59855;DHT22;45732;52.850;6.896;2023-04-24T15:22:50;9.60;99.90
59855;DHT22;45732;52.850;6.896;2023-04-24T15:25:16;9.60;99.90
59855;DHT22;45732;52.850;6.896;2023-04-24T15:27:43;9.70;99.90
59855;DHT22;45732;52.850;6.896;2023-04-24T15:30:10;9.80;99.90
59855;DHT22;45732;52.850;6.896;2023-04-24T15:32:37;9.80;99.90
59855;DHT22;45732;52.850;6.896;2023-04-24T15:35:03;9.80;99.90
59855;DHT22;45732;52.850;6.896;2023-04-24T15:37:29;9.80;99.90
59855;DHT22;45732;52.850;6.896;2023-04-24T15:39:55;9.80;99.90
59855;DHT22;45732;52.850;6.896;2023-04-24T15:42:21;9.70;99.90
59855;DHT22;45732;52.850;6.896;2023-04-24T15:44:46;9.70;99.90
59855;DHT22;45732;52.850;6.896;2023-04-24T15:47:12;9.70;99.90
59855;DHT22;45732;52.850;6.896;2023-04-24T15:49:39;9.80;99.90
59855;DHT22;45732;52.850;6.896;2023-04-24T15:52:05;9.80;99.90
59855;DHT22;45732;52.850;6.896;2023-04-24T15:54:31;9.80;99.90
59855;DHT22;45732;52.850;6.896;2023-04-24T15:56:57;9.70;99.90
59855;DHT22;45732;52.850;6.896;2023-04-24T15:59:23;9.70;99.90